Stuttgart Airport EDDS

Flugplatz Daten

Name: Stuttgart Airport

Ident: EDDS

Lat: 48,68989944

Long: 9,221960068

Platzhöhe: 1276 ft

IataCode: STR

City: Stuttgart

Metar

2022/08/10 20:20
EDDS 102020Z AUTO 07003KT 030V100 CAVOK 20/08 Q1022

Taf

2022/08/10 18:27
TAF EDDS 101700Z 1018/1118 07007KT CAVOK
BECMG 1018/1021 VRB03KT
BECMG 1106/1108 07008KT

Webcams

Runway Apron apron
Gewünschte Webcam nicht vorhanden? Dann fügen Sie eine hinzu. Sie wird dann so schnell wie möglich freigeschaltet
Url: Title: